createdAt,value
2022-11-16T00:01:26.217Z,98233.81
2022-11-16T00:03:58.569Z,98229.50
2022-11-16T00:06:29.148Z,98224.41
2022-11-16T00:09:18.079Z,98230.16
2022-11-16T00:11:49.912Z,98228.19
2022-11-16T00:14:18.674Z,98223.41
2022-11-16T00:16:49.775Z,98219.94
2022-11-16T00:19:18.880Z,98222.06
2022-11-16T00:21:47.784Z,98224.81
2022-11-16T00:24:19.109Z,98234.03
2022-11-16T00:26:50.220Z,98228.44
2022-11-16T00:29:20.893Z,98230.72
2022-11-16T00:31:51.090Z,98232.34
2022-11-16T00:34:20.562Z,98229.13
2022-11-16T00:36:49.686Z,98235.50
2022-11-16T00:39:21.056Z,98233.38
2022-11-16T00:41:51.917Z,98232.22
2022-11-16T00:44:20.704Z,98232.09
2022-11-16T00:46:49.651Z,98235.72
2022-11-16T00:49:18.588Z,98230.47
2022-11-16T00:51:47.203Z,98227.66
2022-11-16T00:54:17.001Z,98220.09
2022-11-16T00:56:45.652Z,98220.25
2022-11-16T00:59:22.288Z,98212.22
2022-11-16T01:01:50.801Z,98214.50
2022-11-16T01:04:20.731Z,98213.97
2022-11-16T01:06:49.595Z,98215.94
2022-11-16T01:09:19.265Z,98216.59
2022-11-16T01:12:05.458Z,98219.91
2022-11-16T01:14:35.798Z,98217.75
2022-11-16T01:17:05.897Z,98223.94
2022-11-16T01:19:34.554Z,98223.78
2022-11-16T01:22:03.444Z,98218.06
2022-11-16T01:24:32.289Z,98220.34
2022-11-16T01:27:01.034Z,98211.94
2022-11-16T01:29:31.730Z,98203.25
2022-11-16T01:32:02.702Z,98203.56
2022-11-16T01:34:32.538Z,98210.59
2022-11-16T01:37:01.499Z,98208.78
2022-11-16T01:39:29.971Z,98207.97
2022-11-16T01:41:58.458Z,98206.47
2022-11-16T01:45:04.174Z,98205.94
2022-11-16T01:47:34.727Z,98200.56
2022-11-16T01:50:11.871Z,98192.69
2022-11-16T01:52:47.120Z,98202.03
2022-11-16T01:55:16.642Z,98206.63
2022-11-16T01:57:47.678Z,98211.88
2022-11-16T02:00:20.219Z,98209.25
2022-11-16T02:02:50.640Z,98208.44
2022-11-16T02:05:23.156Z,98205.94
2022-11-16T02:08:23.815Z,98205.13
2022-11-16T02:11:05.313Z,98211.38
2022-11-16T02:13:47.008Z,98201.03
2022-11-16T02:16:29.053Z,98199.53
2022-11-16T02:19:10.233Z,98191.13
2022-11-16T02:21:46.356Z,98188.47
2022-11-16T02:24:45.057Z,98192.41
2022-11-16T02:27:34.155Z,98192.88
2022-11-16T02:30:06.506Z,98201.56
2022-11-16T02:32:38.486Z,98193.97
2022-11-16T02:35:15.298Z,98196.91
2022-11-16T02:37:49.501Z,98188.22
2022-11-16T02:40:22.257Z,98190.31
2022-11-16T02:42:56.259Z,98187.56
2022-11-16T02:45:30.856Z,98190.84
2022-11-16T02:48:05.445Z,98184.47
2022-11-16T02:50:35.494Z,98182.66
2022-11-16T02:53:04.926Z,98178.53
2022-11-16T02:55:36.231Z,98183.94
2022-11-16T02:58:07.519Z,98175.72
2022-11-16T03:00:46.284Z,98183.75
2022-11-16T03:03:26.013Z,98178.00
2022-11-16T03:05:57.816Z,98181.22
2022-11-16T03:08:32.180Z,98176.13
2022-11-16T03:11:23.256Z,98177.09
2022-11-16T03:13:52.963Z,98171.19
2022-11-16T03:16:29.212Z,98166.91
2022-11-16T03:19:00.252Z,98164.63
2022-11-16T03:21:36.061Z,98162.13
2022-11-16T03:24:05.455Z,98161.31
2022-11-16T03:26:44.658Z,98168.53
2022-11-16T03:29:22.599Z,98171.91
2022-11-16T03:31:58.255Z,98165.84
2022-11-16T03:34:31.615Z,98159.78
2022-11-16T03:37:04.452Z,98157.66
2022-11-16T03:39:38.034Z,98152.91
2022-11-16T03:42:13.917Z,98153.38
2022-11-16T03:44:46.893Z,98156.00
2022-11-16T03:47:19.696Z,98160.75
2022-11-16T03:49:50.487Z,98162.84
2022-11-16T03:52:19.734Z,98164.28
2022-11-16T03:54:48.830Z,98164.34
2022-11-16T03:57:18.775Z,98164.31
2022-11-16T03:59:47.647Z,98169.31
2022-11-16T04:02:16.281Z,98174.41
2022-11-16T04:05:04.332Z,98168.31
2022-11-16T04:07:49.754Z,98171.09
2022-11-16T04:10:35.857Z,98173.56
2022-11-16T04:13:22.966Z,98173.88
2022-11-16T04:16:08.854Z,98185.44
2022-11-16T04:19:02.879Z,98183.25
2022-11-16T04:21:53.155Z,98174.88
2022-11-16T04:24:33.215Z,98179.75
2022-11-16T04:27:24.793Z,98186.41
2022-11-16T04:30:00.980Z,98187.91
2022-11-16T04:32:47.628Z,98188.88
2022-11-16T04:35:41.890Z,98188.88
2022-11-16T04:38:13.530Z,98183.78
2022-11-16T04:40:43.800Z,98189.31
2022-11-16T04:43:11.051Z,98182.06
2022-11-16T04:45:56.926Z,98193.13
2022-11-16T04:48:25.763Z,98193.56
2022-11-16T04:50:54.407Z,98194.13
2022-11-16T04:53:30.094Z,98204.38
2022-11-16T04:56:01.177Z,98205.34
2022-11-16T04:58:31.695Z,98203.41
2022-11-16T05:01:02.005Z,98200.25
2022-11-16T05:03:33.080Z,98198.22
2022-11-16T05:06:03.745Z,98202.09
2022-11-16T05:08:38.144Z,98204.03
2022-11-16T05:11:08.348Z,98209.41
2022-11-16T05:13:37.285Z,98209.72
2022-11-16T05:16:07.181Z,98214.41
2022-11-16T05:18:44.677Z,98217.28
2022-11-16T05:21:17.079Z,98217.72
2022-11-16T05:24:07.180Z,98216.25
2022-11-16T05:26:38.913Z,98223.13
2022-11-16T05:29:10.821Z,98229.16
2022-11-16T05:31:40.782Z,98224.53
2022-11-16T05:34:12.944Z,98229.31
2022-11-16T05:36:44.445Z,98231.78
2022-11-16T05:39:29.236Z,98222.41
2022-11-16T05:42:00.531Z,98223.13
2022-11-16T05:44:30.233Z,98219.56
2022-11-16T05:46:59.954Z,98220.41
2022-11-16T05:49:30.480Z,98221.38
2022-11-16T05:52:00.230Z,98230.06
2022-11-16T05:54:33.926Z,98231.88
2022-11-16T05:57:02.686Z,98232.16
2022-11-16T05:59:31.719Z,98239.19
2022-11-16T06:02:04.151Z,98235.59
2022-11-16T06:04:35.101Z,98237.97
2022-11-16T06:07:05.142Z,98228.88
2022-11-16T06:09:35.512Z,98230.34
2022-11-16T06:12:04.585Z,98228.16
2022-11-16T06:14:35.546Z,98228.75
2022-11-16T06:45:03.105Z,98248.44
2022-11-16T06:47:32.094Z,98245.56
2022-11-16T06:50:01.090Z,98254.38
2022-11-16T06:52:30.939Z,98250.94
2022-11-16T06:54:59.481Z,98255.75
2022-11-16T06:57:36.470Z,98263.44
2022-11-16T07:00:12.258Z,98261.50
2022-11-16T07:02:42.750Z,98265.50
2022-11-16T07:05:15.400Z,98268.94
2022-11-16T07:07:44.904Z,98260.81
2022-11-16T07:10:18.680Z,98262.88
2022-11-16T07:12:49.788Z,98256.69
2022-11-16T07:15:20.287Z,98257.09
2022-11-16T07:17:51.636Z,98254.06
2022-11-16T07:20:22.592Z,98259.72
2022-11-16T07:22:53.303Z,98261.66
2022-11-16T07:25:23.327Z,98257.09
2022-11-16T07:27:51.706Z,98266.06
2022-11-16T07:30:21.906Z,98273.84
2022-11-16T07:32:50.741Z,98268.63
2022-11-16T07:35:20.634Z,98273.59
2022-11-16T07:37:58.816Z,98278.41
2022-11-16T07:40:27.396Z,98281.97
2022-11-16T07:42:59.284Z,98275.09
2022-11-16T07:45:29.059Z,98283.63
2022-11-16T07:47:58.563Z,98281.81
2022-11-16T07:50:26.923Z,98274.69
2022-11-16T07:52:56.846Z,98279.91
2022-11-16T07:55:34.309Z,98278.53
2022-11-16T07:58:10.939Z,98277.72
2022-11-16T08:00:47.288Z,98281.81
2022-11-16T08:03:19.295Z,98280.59
2022-11-16T08:06:00.771Z,98286.66
2022-11-16T08:08:33.469Z,98290.63
2022-11-16T08:11:10.624Z,98291.72
2022-11-16T08:13:45.905Z,98276.75
2022-11-16T08:16:19.760Z,98270.81
2022-11-16T08:18:51.831Z,98270.28
2022-11-16T08:21:24.514Z,98274.28
2022-11-16T08:23:58.073Z,98282.41
2022-11-16T08:26:31.838Z,98282.13
2022-11-16T08:29:09.506Z,98278.72
2022-11-16T08:31:40.097Z,98273.63
2022-11-16T08:34:10.875Z,98269.19
2022-11-16T08:36:40.628Z,98265.84
2022-11-16T08:39:09.035Z,98269.09
2022-11-16T08:41:45.133Z,98272.38
2022-11-16T08:44:15.835Z,98264.88
2022-11-16T08:46:45.921Z,98259.47
2022-11-16T08:49:15.213Z,98262.78
2022-11-16T08:51:43.759Z,98254.78
2022-11-16T08:54:13.486Z,98255.09
2022-11-16T08:56:42.160Z,98260.66
2022-11-16T08:59:10.823Z,98256.19
2022-11-16T09:01:42.277Z,98256.06
2022-11-16T09:04:13.841Z,98261.44
2022-11-16T09:06:42.617Z,98270.00
2022-11-16T09:09:14.867Z,98280.16
2022-11-16T09:11:43.997Z,98280.25
2022-11-16T09:14:14.216Z,98279.66
2022-11-16T09:16:42.745Z,98264.81
2022-11-16T09:19:20.965Z,98274.88
2022-11-16T09:21:50.888Z,98285.97
2022-11-16T09:24:19.917Z,98285.25
2022-11-16T09:26:48.378Z,98281.84
2022-11-16T09:29:16.994Z,98278.78
2022-11-16T09:31:46.334Z,98271.16
2022-11-16T09:34:15.694Z,98266.25
2022-11-16T09:36:45.789Z,98259.56
2022-11-16T09:39:30.039Z,98251.53
2022-11-16T09:42:08.654Z,98249.63
2022-11-16T09:45:08.772Z,98239.06
2022-11-16T09:47:46.553Z,98231.16
2022-11-16T09:50:33.590Z,98235.88
2022-11-16T09:53:15.486Z,98227.88
2022-11-16T09:55:49.221Z,98237.72
2022-11-16T09:58:23.982Z,98241.16
2022-11-16T10:00:59.122Z,98242.78
2022-11-16T10:03:29.900Z,98252.91
2022-11-16T10:06:04.629Z,98249.31
2022-11-16T10:08:44.878Z,98243.09
2022-11-16T10:11:33.655Z,98233.06
2022-11-16T10:14:21.016Z,98241.59
2022-11-16T10:16:58.096Z,98240.81
2022-11-16T10:19:39.853Z,98242.31
2022-11-16T10:22:23.585Z,98237.22
2022-11-16T10:24:59.119Z,98233.16
2022-11-16T10:27:39.912Z,98228.56
2022-11-16T10:30:12.507Z,98229.34
2022-11-16T10:32:48.911Z,98232.97
2022-11-16T10:35:21.434Z,98227.03
2022-11-16T10:37:53.268Z,98224.22
2022-11-16T10:40:27.584Z,98217.25
2022-11-16T10:43:07.414Z,98225.44
2022-11-16T10:45:41.464Z,98226.84
2022-11-16T10:48:32.513Z,98225.88
2022-11-16T10:51:01.594Z,98228.13
2022-11-16T10:53:34.092Z,98213.09
2022-11-16T10:56:16.240Z,98207.91
2022-11-16T10:58:58.386Z,98216.88
2022-11-16T11:01:33.946Z,98211.34
2022-11-16T11:04:20.727Z,98199.22
2022-11-16T11:06:52.916Z,98202.09
2022-11-16T11:09:31.318Z,98195.22
2022-11-16T11:12:41.504Z,98187.38
2022-11-16T11:15:26.526Z,98172.47
2022-11-16T11:18:15.024Z,98164.22
2022-11-16T11:20:46.226Z,98155.63
2022-11-16T11:23:19.302Z,98157.47
2022-11-16T11:25:56.699Z,98148.72
2022-11-16T11:28:30.398Z,98140.25
2022-11-16T11:31:04.048Z,98140.34
2022-11-16T11:33:36.979Z,98137.41
2022-11-16T11:36:13.289Z,98138.25
2022-11-16T11:38:58.576Z,98133.78
2022-11-16T11:41:30.069Z,98124.09
2022-11-16T11:44:17.364Z,98119.69
2022-11-16T11:49:52.474Z,98116.53
2022-11-16T11:52:26.753Z,98122.00
2022-11-16T11:54:57.903Z,98102.81
2022-11-16T11:57:28.022Z,98095.66
2022-11-16T11:59:58.169Z,98088.22
2022-11-16T12:02:42.249Z,98102.44
2022-11-16T12:05:45.830Z,98081.34
2022-11-16T12:08:36.208Z,98079.59
2022-11-16T12:11:15.420Z,98074.94
2022-11-16T13:20:03.002Z,98038.22
2022-11-16T13:22:35.565Z,98042.31
2022-11-16T13:25:15.760Z,98034.53
2022-11-16T13:27:51.297Z,98029.22
2022-11-16T13:30:23.698Z,98015.13
2022-11-16T13:33:13.349Z,98014.25
2022-11-16T13:35:43.922Z,98012.44
2022-11-16T13:38:52.646Z,98002.63
2022-11-16T13:41:35.495Z,98009.13
2022-11-16T13:44:06.490Z,98007.44
2022-11-16T13:46:55.945Z,97994.59
2022-11-16T13:56:44.805Z,97978.72
2022-11-16T15:07:17.301Z,97947.09
2022-11-16T15:17:33.198Z,97968.56
2022-11-16T15:20:41.922Z,97977.13
2022-11-16T15:23:40.850Z,97978.03
2022-11-16T15:26:13.274Z,97974.41
2022-11-16T15:28:48.740Z,97979.94
2022-11-16T15:31:22.412Z,97984.69
2022-11-16T15:33:51.352Z,97993.44
2022-11-16T15:36:25.625Z,97995.66
2022-11-16T15:38:59.124Z,97999.84
2022-11-16T15:41:29.704Z,97997.94
2022-11-16T15:44:16.597Z,98002.28
2022-11-16T15:46:48.778Z,98006.47
2022-11-16T15:49:29.886Z,97995.28
2022-11-16T15:52:00.154Z,98005.38
2022-11-16T15:54:51.763Z,98011.91
2022-11-16T15:57:21.621Z,98003.25
2022-11-16T16:10:33.241Z,98018.47
2022-11-16T16:13:04.358Z,98012.91
2022-11-16T16:15:36.910Z,98015.59
2022-11-16T16:18:14.604Z,98024.84
2022-11-16T16:20:50.119Z,98025.19
2022-11-16T16:23:27.049Z,98023.06
2022-11-16T16:25:57.033Z,98025.59
2022-11-16T16:28:25.522Z,98021.00
2022-11-16T16:30:56.971Z,98025.66
2022-11-16T16:33:29.326Z,98022.91
2022-11-16T16:35:58.137Z,98028.03
2022-11-16T16:38:27.101Z,98025.28
2022-11-16T16:41:03.111Z,98028.06
2022-11-16T16:43:33.464Z,98033.69
2022-11-16T16:46:03.752Z,98031.06
2022-11-16T16:48:32.763Z,98038.28
2022-11-16T16:51:01.512Z,98045.84
2022-11-16T16:53:29.887Z,98043.19
2022-11-16T16:56:00.206Z,98040.88
2022-11-16T16:58:28.778Z,98038.25
2022-11-16T17:48:22.945Z,98053.88
2022-11-16T17:50:52.036Z,98058.22
2022-11-16T17:53:20.572Z,98063.78
2022-11-16T17:55:49.480Z,98068.34
2022-11-16T17:58:18.101Z,98065.41
2022-11-16T18:00:50.729Z,98066.88
2022-11-16T18:03:20.666Z,98075.47
2022-11-16T18:05:50.752Z,98070.19
2022-11-16T18:08:20.052Z,98071.50
2022-11-16T18:10:51.874Z,98076.66
2022-11-16T18:13:23.252Z,98073.53
2022-11-16T18:15:53.111Z,98075.84
2022-11-16T18:18:24.419Z,98081.94
2022-11-16T18:20:56.498Z,98088.50
2022-11-16T18:23:26.159Z,98085.56
2022-11-16T18:25:54.995Z,98088.03
2022-11-16T18:28:23.626Z,98089.53
2022-11-16T18:30:53.454Z,98092.78
2022-11-16T18:33:24.317Z,98089.03
2022-11-16T18:35:57.751Z,98097.06
2022-11-16T18:38:26.341Z,98101.00
2022-11-16T18:41:08.662Z,98098.69
2022-11-16T18:43:37.957Z,98096.00
2022-11-16T18:46:14.657Z,98100.44
2022-11-16T18:48:46.916Z,98104.19
2022-11-16T18:51:19.207Z,98106.19
2022-11-16T18:53:49.244Z,98108.63
2022-11-16T18:56:20.604Z,98110.16
2022-11-16T18:58:50.778Z,98110.38
2022-11-16T19:01:24.611Z,98123.53
2022-11-16T19:03:55.097Z,98112.03
2022-11-16T19:06:26.764Z,98120.44
2022-11-16T19:08:59.577Z,98126.31
2022-11-16T19:11:30.050Z,98121.56
2022-11-16T19:14:01.085Z,98126.97
2022-11-16T19:16:30.446Z,98111.47
2022-11-16T19:19:05.580Z,98109.84
2022-11-16T19:21:42.349Z,98113.94
2022-11-16T19:24:11.993Z,98121.34
2022-11-16T19:26:46.377Z,98118.56
2022-11-16T19:31:56.628Z,98113.59
2022-11-16T19:34:30.404Z,98113.41
2022-11-16T19:37:03.084Z,98118.66
2022-11-16T19:39:31.449Z,98119.78
2022-11-16T19:42:00.081Z,98110.44
2022-11-16T19:44:28.545Z,98114.50
2022-11-16T19:46:57.760Z,98112.88
2022-11-16T19:49:26.263Z,98110.72
2022-11-16T19:51:54.878Z,98110.72
2022-11-16T19:54:24.922Z,98114.66
2022-11-16T19:56:55.173Z,98119.41
2022-11-16T19:59:23.971Z,98121.38
2022-11-16T20:01:53.068Z,98124.53
2022-11-16T20:04:23.320Z,98118.84
2022-11-16T20:06:53.011Z,98130.72
2022-11-16T20:09:22.024Z,98138.91
2022-11-16T20:11:52.455Z,98137.31
2022-11-16T20:14:21.292Z,98141.78
2022-11-16T20:16:50.746Z,98143.75
2022-11-16T20:19:20.723Z,98136.69
2022-11-16T20:21:49.097Z,98146.03
2022-11-16T20:24:19.253Z,98140.47
2022-11-16T20:26:49.300Z,98147.88
2022-11-16T20:29:20.519Z,98147.88
2022-11-16T20:31:49.171Z,98142.63
2022-11-16T20:34:20.731Z,98155.28
2022-11-16T20:36:51.525Z,98148.69
2022-11-16T20:39:21.711Z,98152.63
2022-11-16T20:41:50.494Z,98154.25
2022-11-16T20:44:22.595Z,98145.88
2022-11-16T20:46:52.666Z,98145.88
2022-11-16T20:49:21.373Z,98145.41
2022-11-16T20:51:51.423Z,98146.56
2022-11-16T20:54:20.075Z,98145.91
2022-11-16T20:56:50.386Z,98145.25
2022-11-16T20:59:20.825Z,98146.94
2022-11-16T21:01:53.724Z,98144.13
2022-11-16T21:04:22.149Z,98144.31
2022-11-16T21:06:50.960Z,98152.72
2022-11-16T21:09:22.966Z,98149.41
2022-11-16T21:12:05.248Z,98152.72
2022-11-16T21:14:35.414Z,98156.84
2022-11-16T21:17:04.046Z,98154.41
2022-11-16T21:19:32.733Z,98158.00
2022-11-16T21:22:01.497Z,98153.56
2022-11-16T21:24:32.004Z,98154.56
2022-11-16T21:27:00.581Z,98157.69
2022-11-16T21:29:29.375Z,98157.84
2022-11-16T21:31:59.567Z,98160.00
2022-11-16T21:34:34.646Z,98158.19
2022-11-16T21:37:05.774Z,98157.84
2022-11-16T21:39:34.305Z,98151.41
2022-11-16T21:42:02.922Z,98151.59
2022-11-16T21:44:42.126Z,98154.38
2022-11-16T21:47:13.782Z,98161.94
2022-11-16T21:50:02.358Z,98159.81
2022-11-16T21:52:30.741Z,98158.97
2022-11-16T21:55:02.280Z,98154.84
2022-11-16T21:57:31.217Z,98164.72
2022-11-16T22:00:01.160Z,98177.69
2022-11-16T22:02:31.426Z,98185.72
2022-11-16T22:05:17.508Z,98187.03
2022-11-16T22:07:46.074Z,98195.09
2022-11-16T22:10:14.592Z,98193.09
2022-11-16T22:12:42.909Z,98197.22
2022-11-16T22:15:12.525Z,98203.31
2022-11-16T22:17:45.168Z,98206.75
2022-11-16T22:20:13.713Z,98203.31
2022-11-16T22:22:42.265Z,98205.94
2022-11-16T22:25:11.720Z,98205.09
2022-11-16T22:28:05.592Z,98205.63
2022-11-16T22:30:29.313Z,98208.72
2022-11-16T22:32:59.125Z,98222.38
2022-11-16T22:35:27.914Z,98215.81
2022-11-16T22:37:56.333Z,98220.06
2022-11-16T22:40:25.183Z,98213.69
2022-11-16T22:42:57.431Z,98215.66
2022-11-16T22:45:26.963Z,98211.53
2022-11-16T22:47:56.742Z,98212.97
2022-11-16T22:50:26.702Z,98217.84
2022-11-16T22:52:55.087Z,98220.13
2022-11-16T22:55:23.777Z,98219.81
2022-11-16T22:57:52.810Z,98223.56
2022-11-16T23:00:21.662Z,98223.06
2022-11-16T23:02:50.500Z,98229.91
2022-11-16T23:05:19.195Z,98231.22
2022-11-16T23:07:49.382Z,98240.50
2022-11-16T23:10:18.540Z,98230.34
2022-11-16T23:13:13.216Z,98242.38
2022-11-16T23:15:50.641Z,98236.09
2022-11-16T23:18:20.224Z,98242.34
2022-11-16T23:21:06.080Z,98237.88
2022-11-16T23:23:53.392Z,98236.41
2022-11-16T23:26:42.755Z,98241.13
2022-11-16T23:29:12.729Z,98240.78
2022-11-16T23:31:41.316Z,98237.78
2022-11-16T23:34:09.714Z,98240.88
2022-11-16T23:36:38.396Z,98248.44
2022-11-16T23:39:08.596Z,98257.09
2022-11-16T23:41:54.946Z,98258.09
2022-11-16T23:44:23.533Z,98250.66
2022-11-16T23:46:52.960Z,98258.56
2022-11-16T23:49:21.573Z,98253.66
2022-11-16T23:51:50.029Z,98260.50
2022-11-16T23:54:20.195Z,98263.13
2022-11-16T23:56:48.665Z,98260.81
2022-11-16T23:59:17.378Z,98267.81
